sensor_id;sensor_type;location;lat;lon;timestamp;P1;durP1;ratioP1;P2;durP2;ratioP2
13568;SDS011;6856;51.460;7.158;2023-03-13T00:00:42;9.27;;;2.63;;
13568;SDS011;6856;51.460;7.158;2023-03-13T00:03:16;8.10;;;2.97;;
13568;SDS011;6856;51.460;7.158;2023-03-13T00:05:53;7.63;;;2.67;;
13568;SDS011;6856;51.460;7.158;2023-03-13T00:08:28;10.13;;;3.10;;
13568;SDS011;6856;51.460;7.158;2023-03-13T00:11:02;8.67;;;2.87;;
13568;SDS011;6856;51.460;7.158;2023-03-13T00:13:39;11.20;;;2.83;;
13568;SDS011;6856;51.460;7.158;2023-03-13T00:16:14;6.97;;;3.00;;
13568;SDS011;6856;51.460;7.158;2023-03-13T00:18:49;11.17;;;3.37;;
13568;SDS011;6856;51.460;7.158;2023-03-13T00:21:25;11.13;;;3.10;;
13568;SDS011;6856;51.460;7.158;2023-03-13T00:24:01;9.63;;;2.67;;
13568;SDS011;6856;51.460;7.158;2023-03-13T00:26:35;7.80;;;2.57;;
13568;SDS011;6856;51.460;7.158;2023-03-13T00:29:10;7.87;;;2.57;;
13568;SDS011;6856;51.460;7.158;2023-03-13T00:31:44;9.33;;;2.60;;
13568;SDS011;6856;51.460;7.158;2023-03-13T00:34:18;11.87;;;3.43;;
13568;SDS011;6856;51.460;7.158;2023-03-13T00:36:53;10.73;;;3.70;;
13568;SDS011;6856;51.460;7.158;2023-03-13T00:39:27;6.53;;;2.50;;
13568;SDS011;6856;51.460;7.158;2023-03-13T00:42:01;7.93;;;3.07;;
13568;SDS011;6856;51.460;7.158;2023-03-13T00:44:37;8.13;;;2.63;;
13568;SDS011;6856;51.460;7.158;2023-03-13T00:47:10;8.90;;;2.40;;
13568;SDS011;6856;51.460;7.158;2023-03-13T00:49:44;9.20;;;2.73;;
13568;SDS011;6856;51.460;7.158;2023-03-13T00:52:17;9.60;;;2.90;;
13568;SDS011;6856;51.460;7.158;2023-03-13T00:54:51;7.53;;;2.67;;
13568;SDS011;6856;51.460;7.158;2023-03-13T00:57:25;7.97;;;3.07;;
13568;SDS011;6856;51.460;7.158;2023-03-13T01:00:01;8.20;;;2.40;;
13568;SDS011;6856;51.460;7.158;2023-03-13T01:02:40;7.63;;;2.70;;
13568;SDS011;6856;51.460;7.158;2023-03-13T01:05:14;9.43;;;2.83;;
13568;SDS011;6856;51.460;7.158;2023-03-13T01:07:48;8.57;;;2.80;;
13568;SDS011;6856;51.460;7.158;2023-03-13T01:10:22;8.13;;;2.93;;
13568;SDS011;6856;51.460;7.158;2023-03-13T01:12:55;8.47;;;2.87;;
13568;SDS011;6856;51.460;7.158;2023-03-13T01:15:32;6.07;;;2.53;;
13568;SDS011;6856;51.460;7.158;2023-03-13T01:18:07;6.97;;;2.73;;
13568;SDS011;6856;51.460;7.158;2023-03-13T01:20:41;9.47;;;2.77;;
13568;SDS011;6856;51.460;7.158;2023-03-13T01:23:15;8.07;;;2.90;;
13568;SDS011;6856;51.460;7.158;2023-03-13T01:25:48;7.10;;;2.70;;
13568;SDS011;6856;51.460;7.158;2023-03-13T01:28:23;8.50;;;2.67;;
13568;SDS011;6856;51.460;7.158;2023-03-13T01:30:59;7.23;;;2.90;;
13568;SDS011;6856;51.460;7.158;2023-03-13T01:33:41;10.87;;;2.90;;
13568;SDS011;6856;51.460;7.158;2023-03-13T01:36:15;8.90;;;2.47;;
13568;SDS011;6856;51.460;7.158;2023-03-13T01:38:51;9.43;;;2.93;;
13568;SDS011;6856;51.460;7.158;2023-03-13T01:41:27;7.03;;;2.30;;
13568;SDS011;6856;51.460;7.158;2023-03-13T01:44:02;8.37;;;2.57;;
13568;SDS011;6856;51.460;7.158;2023-03-13T01:46:37;7.67;;;2.67;;
13568;SDS011;6856;51.460;7.158;2023-03-13T01:49:11;9.20;;;2.60;;
13568;SDS011;6856;51.460;7.158;2023-03-13T01:51:52;8.03;;;2.73;;
13568;SDS011;6856;51.460;7.158;2023-03-13T01:54:31;4.57;;;1.97;;
13568;SDS011;6856;51.460;7.158;2023-03-13T01:57:12;11.03;;;2.83;;
13568;SDS011;6856;51.460;7.158;2023-03-13T01:59:53;5.93;;;2.27;;
13568;SDS011;6856;51.460;7.158;2023-03-13T02:02:35;7.50;;;2.67;;
13568;SDS011;6856;51.460;7.158;2023-03-13T02:05:13;5.67;;;2.50;;
13568;SDS011;6856;51.460;7.158;2023-03-13T02:07:52;7.57;;;2.67;;
13568;SDS011;6856;51.460;7.158;2023-03-13T02:10:33;10.37;;;2.60;;
13568;SDS011;6856;51.460;7.158;2023-03-13T02:13:16;7.97;;;3.03;;
13568;SDS011;6856;51.460;7.158;2023-03-13T02:15:52;5.97;;;2.27;;
13568;SDS011;6856;51.460;7.158;2023-03-13T02:18:28;10.10;;;2.80;;
13568;SDS011;6856;51.460;7.158;2023-03-13T02:21:05;4.80;;;2.10;;
13568;SDS011;6856;51.460;7.158;2023-03-13T02:23:49;8.77;;;2.67;;
13568;SDS011;6856;51.460;7.158;2023-03-13T02:26:34;10.50;;;3.17;;
13568;SDS011;6856;51.460;7.158;2023-03-13T02:29:08;8.33;;;2.30;;
13568;SDS011;6856;51.460;7.158;2023-03-13T02:31:48;7.00;;;2.37;;
13568;SDS011;6856;51.460;7.158;2023-03-13T02:34:26;9.90;;;2.97;;
13568;SDS011;6856;51.460;7.158;2023-03-13T02:37:05;5.03;;;2.00;;
13568;SDS011;6856;51.460;7.158;2023-03-13T02:39:44;9.07;;;2.70;;
13568;SDS011;6856;51.460;7.158;2023-03-13T02:42:24;6.30;;;2.23;;
13568;SDS011;6856;51.460;7.158;2023-03-13T02:44:58;8.10;;;2.70;;
13568;SDS011;6856;51.460;7.158;2023-03-13T02:47:32;7.73;;;2.63;;
13568;SDS011;6856;51.460;7.158;2023-03-13T02:50:06;8.20;;;2.50;;
13568;SDS011;6856;51.460;7.158;2023-03-13T02:52:42;6.83;;;2.50;;
13568;SDS011;6856;51.460;7.158;2023-03-13T02:55:21;8.73;;;2.60;;
13568;SDS011;6856;51.460;7.158;2023-03-13T02:58:03;6.33;;;2.47;;
13568;SDS011;6856;51.460;7.158;2023-03-13T03:00:37;6.93;;;2.60;;
13568;SDS011;6856;51.460;7.158;2023-03-13T03:03:11;5.63;;;2.17;;
13568;SDS011;6856;51.460;7.158;2023-03-13T03:05:44;6.53;;;2.73;;
13568;SDS011;6856;51.460;7.158;2023-03-13T03:08:18;9.67;;;2.40;;
13568;SDS011;6856;51.460;7.158;2023-03-13T03:10:52;6.43;;;2.50;;
13568;SDS011;6856;51.460;7.158;2023-03-13T03:13:27;5.60;;;2.00;;
13568;SDS011;6856;51.460;7.158;2023-03-13T03:16:04;3.47;;;1.73;;
13568;SDS011;6856;51.460;7.158;2023-03-13T03:18:39;5.93;;;2.10;;
13568;SDS011;6856;51.460;7.158;2023-03-13T03:21:13;8.93;;;2.63;;
13568;SDS011;6856;51.460;7.158;2023-03-13T03:23:47;7.53;;;1.70;;
13568;SDS011;6856;51.460;7.158;2023-03-13T03:26:21;9.00;;;2.30;;
13568;SDS011;6856;51.460;7.158;2023-03-13T03:28:56;5.63;;;1.83;;
13568;SDS011;6856;51.460;7.158;2023-03-13T03:31:30;4.00;;;1.73;;
13568;SDS011;6856;51.460;7.158;2023-03-13T03:34:04;4.30;;;1.93;;
13568;SDS011;6856;51.460;7.158;2023-03-13T03:36:38;6.37;;;2.30;;
13568;SDS011;6856;51.460;7.158;2023-03-13T03:39:12;4.13;;;1.67;;
13568;SDS011;6856;51.460;7.158;2023-03-13T03:41:45;4.97;;;1.57;;
13568;SDS011;6856;51.460;7.158;2023-03-13T03:44:21;6.63;;;1.53;;
13568;SDS011;6856;51.460;7.158;2023-03-13T03:46:55;4.33;;;1.57;;
13568;SDS011;6856;51.460;7.158;2023-03-13T03:49:29;3.87;;;1.77;;
13568;SDS011;6856;51.460;7.158;2023-03-13T03:52:03;3.60;;;1.60;;
13568;SDS011;6856;51.460;7.158;2023-03-13T03:54:38;4.47;;;1.57;;
13568;SDS011;6856;51.460;7.158;2023-03-13T03:57:11;3.97;;;1.50;;
13568;SDS011;6856;51.460;7.158;2023-03-13T03:59:46;5.07;;;1.40;;
13568;SDS011;6856;51.460;7.158;2023-03-13T04:02:20;2.50;;;1.07;;
13568;SDS011;6856;51.460;7.158;2023-03-13T04:04:53;3.07;;;1.20;;
13568;SDS011;6856;51.460;7.158;2023-03-13T04:07:27;2.93;;;1.17;;
13568;SDS011;6856;51.460;7.158;2023-03-13T04:10:01;3.23;;;1.30;;
13568;SDS011;6856;51.460;7.158;2023-03-13T04:12:35;3.27;;;1.30;;
13568;SDS011;6856;51.460;7.158;2023-03-13T04:15:11;2.47;;;1.17;;
13568;SDS011;6856;51.460;7.158;2023-03-13T04:17:45;2.53;;;1.27;;
13568;SDS011;6856;51.460;7.158;2023-03-13T04:20:19;2.10;;;1.23;;
13568;SDS011;6856;51.460;7.158;2023-03-13T04:22:53;2.83;;;1.20;;
13568;SDS011;6856;51.460;7.158;2023-03-13T04:25:27;3.00;;;1.07;;
13568;SDS011;6856;51.460;7.158;2023-03-13T04:28:01;2.90;;;1.17;;
13568;SDS011;6856;51.460;7.158;2023-03-13T04:30:36;2.07;;;0.97;;
13568;SDS011;6856;51.460;7.158;2023-03-13T04:33:14;2.10;;;0.90;;
13568;SDS011;6856;51.460;7.158;2023-03-13T04:35:47;2.47;;;1.07;;
13568;SDS011;6856;51.460;7.158;2023-03-13T04:38:21;2.00;;;0.93;;
13568;SDS011;6856;51.460;7.158;2023-03-13T04:40:55;0.90;;;0.80;;
13568;SDS011;6856;51.460;7.158;2023-03-13T04:43:28;2.00;;;0.90;;
13568;SDS011;6856;51.460;7.158;2023-03-13T04:46:04;1.17;;;1.00;;
13568;SDS011;6856;51.460;7.158;2023-03-13T04:48:38;2.30;;;1.33;;
13568;SDS011;6856;51.460;7.158;2023-03-13T04:51:12;2.80;;;1.10;;
13568;SDS011;6856;51.460;7.158;2023-03-13T04:53:46;1.57;;;0.93;;
13568;SDS011;6856;51.460;7.158;2023-03-13T04:56:21;2.57;;;1.03;;
13568;SDS011;6856;51.460;7.158;2023-03-13T04:59:13;1.70;;;1.00;;
13568;SDS011;6856;51.460;7.158;2023-03-13T05:01:49;2.00;;;1.00;;
13568;SDS011;6856;51.460;7.158;2023-03-13T05:04:23;1.53;;;0.90;;
13568;SDS011;6856;51.460;7.158;2023-03-13T05:06:56;2.60;;;1.00;;
13568;SDS011;6856;51.460;7.158;2023-03-13T05:09:30;2.20;;;0.90;;
13568;SDS011;6856;51.460;7.158;2023-03-13T05:12:04;0.70;;;0.70;;
13568;SDS011;6856;51.460;7.158;2023-03-13T05:14:38;0.70;;;0.70;;
13568;SDS011;6856;51.460;7.158;2023-03-13T05:17:13;2.10;;;0.70;;
13568;SDS011;6856;51.460;7.158;2023-03-13T05:19:48;1.07;;;0.70;;
13568;SDS011;6856;51.460;7.158;2023-03-13T05:22:22;1.90;;;0.90;;
13568;SDS011;6856;51.460;7.158;2023-03-13T05:24:56;0.97;;;0.80;;
13568;SDS011;6856;51.460;7.158;2023-03-13T05:27:29;1.37;;;0.97;;
13568;SDS011;6856;51.460;7.158;2023-03-13T05:30:03;0.97;;;0.60;;
13568;SDS011;6856;51.460;7.158;2023-03-13T05:32:40;1.37;;;0.73;;
13568;SDS011;6856;51.460;7.158;2023-03-13T05:35:14;2.07;;;0.90;;
13568;SDS011;6856;51.460;7.158;2023-03-13T05:37:48;1.47;;;0.70;;
13568;SDS011;6856;51.460;7.158;2023-03-13T05:40:22;1.23;;;0.83;;
13568;SDS011;6856;51.460;7.158;2023-03-13T05:42:56;1.47;;;0.80;;
13568;SDS011;6856;51.460;7.158;2023-03-13T05:45:30;2.50;;;0.90;;
13568;SDS011;6856;51.460;7.158;2023-03-13T05:48:06;1.50;;;1.00;;
13568;SDS011;6856;51.460;7.158;2023-03-13T05:50:40;2.10;;;1.00;;
13568;SDS011;6856;51.460;7.158;2023-03-13T05:53:14;1.20;;;0.93;;
13568;SDS011;6856;51.460;7.158;2023-03-13T05:55:47;2.10;;;1.00;;
13568;SDS011;6856;51.460;7.158;2023-03-13T05:58:21;1.13;;;0.90;;
13568;SDS011;6856;51.460;7.158;2023-03-13T06:00:55;1.77;;;1.00;;
13568;SDS011;6856;51.460;7.158;2023-03-13T06:03:30;1.40;;;1.10;;
13568;SDS011;6856;51.460;7.158;2023-03-13T06:06:05;1.57;;;1.20;;
13568;SDS011;6856;51.460;7.158;2023-03-13T06:08:39;0.90;;;0.90;;
13568;SDS011;6856;51.460;7.158;2023-03-13T06:11:13;1.23;;;0.93;;
13568;SDS011;6856;51.460;7.158;2023-03-13T06:13:47;1.57;;;1.07;;
13568;SDS011;6856;51.460;7.158;2023-03-13T06:16:23;1.20;;;1.10;;
13568;SDS011;6856;51.460;7.158;2023-03-13T06:18:58;1.20;;;1.10;;
13568;SDS011;6856;51.460;7.158;2023-03-13T06:21:32;2.23;;;1.13;;
13568;SDS011;6856;51.460;7.158;2023-03-13T06:24:06;1.47;;;1.03;;
13568;SDS011;6856;51.460;7.158;2023-03-13T06:26:41;1.73;;;1.20;;
13568;SDS011;6856;51.460;7.158;2023-03-13T06:29:16;1.87;;;1.20;;
13568;SDS011;6856;51.460;7.158;2023-03-13T06:31:50;1.70;;;1.00;;
13568;SDS011;6856;51.460;7.158;2023-03-13T06:34:25;1.47;;;0.93;;
13568;SDS011;6856;51.460;7.158;2023-03-13T06:36:59;3.10;;;1.17;;
13568;SDS011;6856;51.460;7.158;2023-03-13T06:39:33;1.87;;;1.10;;
13568;SDS011;6856;51.460;7.158;2023-03-13T06:42:07;1.27;;;1.00;;
13568;SDS011;6856;51.460;7.158;2023-03-13T06:44:44;1.93;;;1.20;;
13568;SDS011;6856;51.460;7.158;2023-03-13T06:47:17;1.30;;;1.00;;
13568;SDS011;6856;51.460;7.158;2023-03-13T06:49:53;1.60;;;0.90;;
13568;SDS011;6856;51.460;7.158;2023-03-13T06:52:27;1.30;;;1.03;;
13568;SDS011;6856;51.460;7.158;2023-03-13T06:55:14;2.13;;;1.13;;
13568;SDS011;6856;51.460;7.158;2023-03-13T06:57:51;1.17;;;0.90;;
13568;SDS011;6856;51.460;7.158;2023-03-13T07:00:25;2.23;;;1.30;;
13568;SDS011;6856;51.460;7.158;2023-03-13T07:03:00;1.73;;;1.17;;
13568;SDS011;6856;51.460;7.158;2023-03-13T07:05:35;1.40;;;1.00;;
13568;SDS011;6856;51.460;7.158;2023-03-13T07:08:09;1.40;;;1.00;;
13568;SDS011;6856;51.460;7.158;2023-03-13T07:10:43;2.57;;;1.00;;
13568;SDS011;6856;51.460;7.158;2023-03-13T07:13:18;2.33;;;1.30;;
13568;SDS011;6856;51.460;7.158;2023-03-13T07:15:53;2.13;;;1.20;;
13568;SDS011;6856;51.460;7.158;2023-03-13T07:18:27;2.10;;;1.10;;
13568;SDS011;6856;51.460;7.158;2023-03-13T07:21:04;2.03;;;1.10;;
13568;SDS011;6856;51.460;7.158;2023-03-13T07:23:38;1.70;;;1.20;;
13568;SDS011;6856;51.460;7.158;2023-03-13T07:26:12;2.67;;;1.20;;
13568;SDS011;6856;51.460;7.158;2023-03-13T07:28:48;2.07;;;1.10;;
13568;SDS011;6856;51.460;7.158;2023-03-13T07:31:22;1.10;;;1.00;;
13568;SDS011;6856;51.460;7.158;2023-03-13T07:33:56;2.17;;;1.17;;
13568;SDS011;6856;51.460;7.158;2023-03-13T07:36:30;3.50;;;1.40;;
13568;SDS011;6856;51.460;7.158;2023-03-13T07:39:06;2.20;;;1.20;;
13568;SDS011;6856;51.460;7.158;2023-03-13T07:41:39;2.70;;;1.23;;
13568;SDS011;6856;51.460;7.158;2023-03-13T07:44:13;2.37;;;1.20;;
13568;SDS011;6856;51.460;7.158;2023-03-13T07:46:47;6.77;;;1.90;;
13568;SDS011;6856;51.460;7.158;2023-03-13T07:49:21;1.50;;;1.10;;
13568;SDS011;6856;51.460;7.158;2023-03-13T07:51:57;3.93;;;1.40;;
13568;SDS011;6856;51.460;7.158;2023-03-13T07:54:30;2.60;;;1.10;;
13568;SDS011;6856;51.460;7.158;2023-03-13T07:57:04;2.47;;;1.23;;
13568;SDS011;6856;51.460;7.158;2023-03-13T07:59:38;2.80;;;1.60;;
13568;SDS011;6856;51.460;7.158;2023-03-13T08:02:12;3.23;;;1.50;;
13568;SDS011;6856;51.460;7.158;2023-03-13T08:04:50;2.40;;;1.47;;
13568;SDS011;6856;51.460;7.158;2023-03-13T08:07:26;3.40;;;1.67;;
13568;SDS011;6856;51.460;7.158;2023-03-13T08:09:59;2.63;;;1.37;;
13568;SDS011;6856;51.460;7.158;2023-03-13T08:12:33;3.00;;;1.50;;
13568;SDS011;6856;51.460;7.158;2023-03-13T08:15:07;4.03;;;1.20;;
13568;SDS011;6856;51.460;7.158;2023-03-13T08:17:43;3.87;;;1.47;;
13568;SDS011;6856;51.460;7.158;2023-03-13T08:20:17;2.73;;;1.30;;
13568;SDS011;6856;51.460;7.158;2023-03-13T08:22:52;2.73;;;1.43;;
13568;SDS011;6856;51.460;7.158;2023-03-13T08:25:28;3.67;;;1.27;;
13568;SDS011;6856;51.460;7.158;2023-03-13T08:28:02;3.37;;;1.67;;
13568;SDS011;6856;51.460;7.158;2023-03-13T08:30:36;1.80;;;1.20;;
13568;SDS011;6856;51.460;7.158;2023-03-13T08:33:10;3.37;;;1.83;;
13568;SDS011;6856;51.460;7.158;2023-03-13T08:35:45;4.10;;;1.50;;
13568;SDS011;6856;51.460;7.158;2023-03-13T08:38:21;4.63;;;1.53;;
13568;SDS011;6856;51.460;7.158;2023-03-13T08:40:55;2.13;;;1.40;;
13568;SDS011;6856;51.460;7.158;2023-03-13T08:43:29;2.80;;;1.43;;
13568;SDS011;6856;51.460;7.158;2023-03-13T08:46:03;2.47;;;1.40;;
13568;SDS011;6856;51.460;7.158;2023-03-13T08:48:37;3.33;;;1.40;;
13568;SDS011;6856;51.460;7.158;2023-03-13T08:51:12;3.50;;;1.23;;
13568;SDS011;6856;51.460;7.158;2023-03-13T08:53:48;3.90;;;1.43;;
13568;SDS011;6856;51.460;7.158;2023-03-13T08:56:24;3.30;;;1.57;;
13568;SDS011;6856;51.460;7.158;2023-03-13T08:59:02;3.20;;;1.60;;
13568;SDS011;6856;51.460;7.158;2023-03-13T09:01:37;3.47;;;1.80;;
13568;SDS011;6856;51.460;7.158;2023-03-13T09:04:15;4.03;;;1.53;;
13568;SDS011;6856;51.460;7.158;2023-03-13T09:06:49;2.93;;;1.50;;
13568;SDS011;6856;51.460;7.158;2023-03-13T09:09:24;3.67;;;1.63;;
13568;SDS011;6856;51.460;7.158;2023-03-13T09:11:58;1.80;;;1.27;;
13568;SDS011;6856;51.460;7.158;2023-03-13T09:14:32;3.30;;;1.60;;
13568;SDS011;6856;51.460;7.158;2023-03-13T09:17:07;4.13;;;1.87;;
13568;SDS011;6856;51.460;7.158;2023-03-13T09:19:41;3.93;;;1.67;;
13568;SDS011;6856;51.460;7.158;2023-03-13T09:22:30;3.27;;;1.73;;
13568;SDS011;6856;51.460;7.158;2023-03-13T09:25:06;4.90;;;1.73;;
13568;SDS011;6856;51.460;7.158;2023-03-13T09:27:49;3.17;;;1.30;;
13568;SDS011;6856;51.460;7.158;2023-03-13T09:30:24;5.07;;;1.73;;
13568;SDS011;6856;51.460;7.158;2023-03-13T09:32:58;4.40;;;1.67;;
13568;SDS011;6856;51.460;7.158;2023-03-13T09:35:36;6.27;;;1.50;;
13568;SDS011;6856;51.460;7.158;2023-03-13T09:38:11;3.33;;;1.80;;
13568;SDS011;6856;51.460;7.158;2023-03-13T09:40:47;2.57;;;1.30;;
13568;SDS011;6856;51.460;7.158;2023-03-13T09:43:38;3.23;;;1.60;;
13568;SDS011;6856;51.460;7.158;2023-03-13T09:46:17;3.83;;;1.60;;
13568;SDS011;6856;51.460;7.158;2023-03-13T09:48:58;3.63;;;1.73;;
13568;SDS011;6856;51.460;7.158;2023-03-13T09:51:37;3.00;;;1.63;;
13568;SDS011;6856;51.460;7.158;2023-03-13T09:54:17;3.40;;;1.60;;
13568;SDS011;6856;51.460;7.158;2023-03-13T09:57:02;2.93;;;1.50;;
13568;SDS011;6856;51.460;7.158;2023-03-13T10:00:05;2.17;;;1.40;;
13568;SDS011;6856;51.460;7.158;2023-03-13T10:02:46;3.73;;;1.60;;
13568;SDS011;6856;51.460;7.158;2023-03-13T10:05:28;3.13;;;1.33;;
13568;SDS011;6856;51.460;7.158;2023-03-13T10:08:07;2.57;;;1.27;;
13568;SDS011;6856;51.460;7.158;2023-03-13T10:10:49;2.93;;;1.53;;
13568;SDS011;6856;51.460;7.158;2023-03-13T10:13:33;3.73;;;1.30;;
13568;SDS011;6856;51.460;7.158;2023-03-13T10:16:14;3.77;;;1.30;;
13568;SDS011;6856;51.460;7.158;2023-03-13T10:18:54;3.93;;;1.80;;
13568;SDS011;6856;51.460;7.158;2023-03-13T10:21:32;3.20;;;1.50;;
13568;SDS011;6856;51.460;7.158;2023-03-13T10:24:12;1.87;;;1.47;;
13568;SDS011;6856;51.460;7.158;2023-03-13T10:26:55;2.73;;;1.67;;
13568;SDS011;6856;51.460;7.158;2023-03-13T10:29:31;3.17;;;1.40;;
13568;SDS011;6856;51.460;7.158;2023-03-13T10:32:06;3.30;;;1.67;;
13568;SDS011;6856;51.460;7.158;2023-03-13T10:34:48;1.67;;;1.30;;
13568;SDS011;6856;51.460;7.158;2023-03-13T10:37:29;3.10;;;1.30;;
13568;SDS011;6856;51.460;7.158;2023-03-13T10:40:10;2.20;;;1.23;;
13568;SDS011;6856;51.460;7.158;2023-03-13T10:42:58;2.60;;;1.50;;
13568;SDS011;6856;51.460;7.158;2023-03-13T10:45:37;1.90;;;1.23;;
13568;SDS011;6856;51.460;7.158;2023-03-13T10:48:17;3.20;;;1.40;;
13568;SDS011;6856;51.460;7.158;2023-03-13T10:50:54;2.67;;;1.30;;
13568;SDS011;6856;51.460;7.158;2023-03-13T10:53:32;5.17;;;1.57;;
13568;SDS011;6856;51.460;7.158;2023-03-13T10:56:11;2.17;;;1.20;;
13568;SDS011;6856;51.460;7.158;2023-03-13T10:58:48;2.50;;;1.27;;
13568;SDS011;6856;51.460;7.158;2023-03-13T11:01:27;2.63;;;1.20;;
13568;SDS011;6856;51.460;7.158;2023-03-13T11:04:19;2.33;;;1.40;;
13568;SDS011;6856;51.460;7.158;2023-03-13T11:07:03;2.17;;;1.10;;
13568;SDS011;6856;51.460;7.158;2023-03-13T11:09:44;1.90;;;1.00;;
13568;SDS011;6856;51.460;7.158;2023-03-13T11:12:32;2.10;;;1.00;;
13568;SDS011;6856;51.460;7.158;2023-03-13T11:15:10;1.87;;;1.20;;
13568;SDS011;6856;51.460;7.158;2023-03-13T11:17:53;2.10;;;1.10;;
13568;SDS011;6856;51.460;7.158;2023-03-13T11:20:35;4.73;;;1.00;;
13568;SDS011;6856;51.460;7.158;2023-03-13T11:23:14;1.00;;;0.90;;
13568;SDS011;6856;51.460;7.158;2023-03-13T11:26:00;2.07;;;1.10;;
13568;SDS011;6856;51.460;7.158;2023-03-13T11:28:46;1.47;;;0.80;;
13568;SDS011;6856;51.460;7.158;2023-03-13T11:31:30;2.63;;;0.97;;
13568;SDS011;6856;51.460;7.158;2023-03-13T11:34:12;1.07;;;0.90;;
13568;SDS011;6856;51.460;7.158;2023-03-13T11:36:57;0.87;;;0.70;;
13568;SDS011;6856;51.460;7.158;2023-03-13T11:39:39;1.40;;;0.80;;
13568;SDS011;6856;51.460;7.158;2023-03-13T11:46:09;2.27;;;1.00;;
13568;SDS011;6856;51.460;7.158;2023-03-13T11:49:30;4.70;;;0.93;;
13568;SDS011;6856;51.460;7.158;2023-03-13T11:52:40;1.10;;;0.80;;
13568;SDS011;6856;51.460;7.158;2023-03-13T11:55:36;1.87;;;0.90;;
13568;SDS011;6856;51.460;7.158;2023-03-13T11:58:24;2.83;;;0.80;;
13568;SDS011;6856;51.460;7.158;2023-03-13T12:01:22;1.97;;;0.80;;
13568;SDS011;6856;51.460;7.158;2023-03-13T12:04:00;1.50;;;1.00;;
13568;SDS011;6856;51.460;7.158;2023-03-13T12:06:48;0.90;;;0.70;;
13568;SDS011;6856;51.460;7.158;2023-03-13T12:09:29;0.93;;;0.63;;
13568;SDS011;6856;51.460;7.158;2023-03-13T12:12:14;1.27;;;0.80;;
13568;SDS011;6856;51.460;7.158;2023-03-13T12:14:59;1.30;;;0.90;;
13568;SDS011;6856;51.460;7.158;2023-03-13T12:17:50;1.77;;;0.67;;
13568;SDS011;6856;51.460;7.158;2023-03-13T12:20:33;2.40;;;0.80;;
13568;SDS011;6856;51.460;7.158;2023-03-13T12:23:25;1.53;;;0.63;;
13568;SDS011;6856;51.460;7.158;2023-03-13T12:26:13;1.97;;;1.00;;
13568;SDS011;6856;51.460;7.158;2023-03-13T12:28:50;2.03;;;1.00;;
13568;SDS011;6856;51.460;7.158;2023-03-13T12:31:39;1.07;;;0.70;;
13568;SDS011;6856;51.460;7.158;2023-03-13T12:34:21;0.90;;;0.50;;
13568;SDS011;6856;51.460;7.158;2023-03-13T12:37:02;2.00;;;0.73;;
13568;SDS011;6856;51.460;7.158;2023-03-13T12:39:52;2.20;;;0.70;;
13568;SDS011;6856;51.460;7.158;2023-03-13T12:42:41;0.63;;;0.60;;
13568;SDS011;6856;51.460;7.158;2023-03-13T12:45:24;1.40;;;0.63;;
13568;SDS011;6856;51.460;7.158;2023-03-13T12:48:07;2.00;;;0.70;;
13568;SDS011;6856;51.460;7.158;2023-03-13T12:51:27;2.33;;;0.80;;
13568;SDS011;6856;51.460;7.158;2023-03-13T12:57:41;4.73;;;0.90;;
13568;SDS011;6856;51.460;7.158;2023-03-13T13:01:01;0.63;;;0.63;;
13568;SDS011;6856;51.460;7.158;2023-03-13T13:03:39;2.53;;;0.60;;
13568;SDS011;6856;51.460;7.158;2023-03-13T13:06:24;0.97;;;0.60;;
13568;SDS011;6856;51.460;7.158;2023-03-13T13:09:22;1.00;;;0.70;;
13568;SDS011;6856;51.460;7.158;2023-03-13T13:11:59;1.73;;;0.67;;
13568;SDS011;6856;51.460;7.158;2023-03-13T13:20:46;1.47;;;0.77;;
13568;SDS011;6856;51.460;7.158;2023-03-13T13:23:25;0.80;;;0.60;;
13568;SDS011;6856;51.460;7.158;2023-03-13T13:35:29;1.87;;;0.80;;
13568;SDS011;6856;51.460;7.158;2023-03-13T13:38:25;1.00;;;0.80;;
13568;SDS011;6856;51.460;7.158;2023-03-13T13:41:23;1.00;;;0.70;;
13568;SDS011;6856;51.460;7.158;2023-03-13T13:47:01;1.37;;;0.57;;
13568;SDS011;6856;51.460;7.158;2023-03-13T13:49:38;2.13;;;0.67;;
13568;SDS011;6856;51.460;7.158;2023-03-13T13:52:34;1.67;;;0.63;;
13568;SDS011;6856;51.460;7.158;2023-03-13T13:55:30;2.43;;;0.83;;
13568;SDS011;6856;51.460;7.158;2023-03-13T13:58:16;3.83;;;0.93;;
13568;SDS011;6856;51.460;7.158;2023-03-13T14:00:55;1.13;;;0.60;;
13568;SDS011;6856;51.460;7.158;2023-03-13T14:03:33;1.70;;;0.80;;
13568;SDS011;6856;51.460;7.158;2023-03-13T14:06:16;2.37;;;0.97;;
13568;SDS011;6856;51.460;7.158;2023-03-13T14:08:54;2.37;;;0.70;;
13568;SDS011;6856;51.460;7.158;2023-03-13T14:11:41;1.17;;;0.80;;
13568;SDS011;6856;51.460;7.158;2023-03-13T14:14:16;3.03;;;0.70;;
13568;SDS011;6856;51.460;7.158;2023-03-13T14:16:52;1.57;;;0.80;;
13568;SDS011;6856;51.460;7.158;2023-03-13T14:19:29;1.90;;;0.70;;
13568;SDS011;6856;51.460;7.158;2023-03-13T14:22:14;2.63;;;0.90;;
13568;SDS011;6856;51.460;7.158;2023-03-13T14:24:55;2.67;;;0.80;;
13568;SDS011;6856;51.460;7.158;2023-03-13T14:27:30;3.57;;;0.90;;
13568;SDS011;6856;51.460;7.158;2023-03-13T14:30:04;4.33;;;0.80;;
13568;SDS011;6856;51.460;7.158;2023-03-13T14:32:42;3.03;;;0.80;;
13568;SDS011;6856;51.460;7.158;2023-03-13T14:35:17;0.70;;;0.60;;
13568;SDS011;6856;51.460;7.158;2023-03-13T14:37:54;2.37;;;0.80;;
13568;SDS011;6856;51.460;7.158;2023-03-13T14:40:36;2.00;;;0.80;;
13568;SDS011;6856;51.460;7.158;2023-03-13T14:43:17;1.60;;;0.83;;
13568;SDS011;6856;51.460;7.158;2023-03-13T14:46:11;1.10;;;0.80;;
13568;SDS011;6856;51.460;7.158;2023-03-13T14:48:52;2.43;;;1.07;;
13568;SDS011;6856;51.460;7.158;2023-03-13T14:51:27;1.30;;;0.70;;
13568;SDS011;6856;51.460;7.158;2023-03-13T14:54:03;0.77;;;0.70;;
13568;SDS011;6856;51.460;7.158;2023-03-13T14:56:37;2.27;;;1.10;;
13568;SDS011;6856;51.460;7.158;2023-03-13T14:59:14;2.10;;;1.00;;
13568;SDS011;6856;51.460;7.158;2023-03-13T15:01:56;2.20;;;1.10;;
13568;SDS011;6856;51.460;7.158;2023-03-13T15:07:34;1.33;;;0.70;;
13568;SDS011;6856;51.460;7.158;2023-03-13T15:10:19;1.80;;;0.67;;
13568;SDS011;6856;51.460;7.158;2023-03-13T15:12:56;1.57;;;0.50;;
13568;SDS011;6856;51.460;7.158;2023-03-13T15:15:31;1.37;;;0.80;;
13568;SDS011;6856;51.460;7.158;2023-03-13T15:18:08;3.93;;;0.70;;
13568;SDS011;6856;51.460;7.158;2023-03-13T15:20:51;2.03;;;0.63;;
13568;SDS011;6856;51.460;7.158;2023-03-13T15:23:27;1.57;;;0.77;;
13568;SDS011;6856;51.460;7.158;2023-03-13T15:26:02;0.97;;;0.70;;
13568;SDS011;6856;51.460;7.158;2023-03-13T15:28:36;1.17;;;0.70;;
13568;SDS011;6856;51.460;7.158;2023-03-13T15:31:10;0.93;;;0.77;;
13568;SDS011;6856;51.460;7.158;2023-03-13T15:33:45;1.57;;;0.70;;
13568;SDS011;6856;51.460;7.158;2023-03-13T15:36:20;1.33;;;0.77;;
13568;SDS011;6856;51.460;7.158;2023-03-13T15:38:54;1.53;;;0.90;;
13568;SDS011;6856;51.460;7.158;2023-03-13T15:41:30;1.40;;;0.90;;
13568;SDS011;6856;51.460;7.158;2023-03-13T15:44:03;0.93;;;0.70;;
13568;SDS011;6856;51.460;7.158;2023-03-13T15:46:37;2.83;;;0.80;;
13568;SDS011;6856;51.460;7.158;2023-03-13T15:49:11;2.17;;;0.80;;
13568;SDS011;6856;51.460;7.158;2023-03-13T15:51:45;1.70;;;0.73;;
13568;SDS011;6856;51.460;7.158;2023-03-13T15:54:19;1.43;;;0.80;;
13568;SDS011;6856;51.460;7.158;2023-03-13T15:56:56;1.07;;;0.63;;
13568;SDS011;6856;51.460;7.158;2023-03-13T15:59:33;1.60;;;0.80;;
13568;SDS011;6856;51.460;7.158;2023-03-13T16:02:11;1.00;;;0.80;;
13568;SDS011;6856;51.460;7.158;2023-03-13T16:04:47;1.20;;;0.90;;
13568;SDS011;6856;51.460;7.158;2023-03-13T16:07:23;2.23;;;0.70;;
13568;SDS011;6856;51.460;7.158;2023-03-13T16:09:56;0.80;;;0.70;;
13568;SDS011;6856;51.460;7.158;2023-03-13T16:12:31;1.57;;;0.83;;
13568;SDS011;6856;51.460;7.158;2023-03-13T16:15:06;1.60;;;0.70;;
13568;SDS011;6856;51.460;7.158;2023-03-13T16:17:41;1.83;;;0.80;;
13568;SDS011;6856;51.460;7.158;2023-03-13T16:20:15;2.33;;;0.73;;
13568;SDS011;6856;51.460;7.158;2023-03-13T16:22:52;2.40;;;0.97;;
13568;SDS011;6856;51.460;7.158;2023-03-13T16:25:27;2.80;;;0.90;;
13568;SDS011;6856;51.460;7.158;2023-03-13T16:28:03;1.33;;;1.00;;
13568;SDS011;6856;51.460;7.158;2023-03-13T16:30:38;1.87;;;1.00;;
13568;SDS011;6856;51.460;7.158;2023-03-13T16:33:14;1.57;;;0.87;;